sensor_id;sensor_type;location;lat;lon;timestamp;P1;durP1;ratioP1;P2;durP2;ratioP2
50363;SDS011;36272;59.400;17.982;2023-02-18T00:04:46;24.77;;;10.48;;
50363;SDS011;36272;59.400;17.982;2023-02-18T00:09:47;20.50;;;9.60;;
50363;SDS011;36272;59.400;17.982;2023-02-18T00:14:49;17.60;;;9.35;;
50363;SDS011;36272;59.400;17.982;2023-02-18T00:19:51;21.52;;;10.50;;
50363;SDS011;36272;59.400;17.982;2023-02-18T00:24:52;24.05;;;10.75;;
50363;SDS011;36272;59.400;17.982;2023-02-18T00:29:54;17.52;;;9.27;;
50363;SDS011;36272;59.400;17.982;2023-02-18T00:34:56;18.25;;;8.77;;
50363;SDS011;36272;59.400;17.982;2023-02-18T00:39:58;16.23;;;7.82;;
50363;SDS011;36272;59.400;17.982;2023-02-18T00:44:59;12.55;;;6.75;;
50363;SDS011;36272;59.400;17.982;2023-02-18T00:50:01;11.88;;;5.95;;
50363;SDS011;36272;59.400;17.982;2023-02-18T00:55:03;14.45;;;7.10;;
50363;SDS011;36272;59.400;17.982;2023-02-18T01:00:07;14.65;;;6.90;;
50363;SDS011;36272;59.400;17.982;2023-02-18T01:05:10;16.65;;;7.90;;
50363;SDS011;36272;59.400;17.982;2023-02-18T01:10:16;15.73;;;7.80;;
50363;SDS011;36272;59.400;17.982;2023-02-18T01:15:18;16.13;;;7.80;;
50363;SDS011;36272;59.400;17.982;2023-02-18T01:20:20;10.20;;;6.47;;
50363;SDS011;36272;59.400;17.982;2023-02-18T01:25:22;8.48;;;5.22;;
50363;SDS011;36272;59.400;17.982;2023-02-18T01:30:24;5.40;;;4.13;;
50363;SDS011;36272;59.400;17.982;2023-02-18T01:35:26;4.07;;;2.90;;
50363;SDS011;36272;59.400;17.982;2023-02-18T01:40:28;5.55;;;3.53;;
50363;SDS011;36272;59.400;17.982;2023-02-18T01:50:36;3.13;;;2.83;;
50363;SDS011;36272;59.400;17.982;2023-02-18T01:55:42;3.08;;;2.60;;
50363;SDS011;36272;59.400;17.982;2023-02-18T02:00:44;1.90;;;1.60;;
50363;SDS011;36272;59.400;17.982;2023-02-18T02:05:46;2.30;;;2.10;;
50363;SDS011;36272;59.400;17.982;2023-02-18T02:10:52;1.60;;;1.50;;
50363;SDS011;36272;59.400;17.982;2023-02-18T02:53:23;3.53;;;2.80;;
50363;SDS011;36272;59.400;17.982;2023-02-18T02:58:28;3.15;;;2.65;;
50363;SDS011;36272;59.400;17.982;2023-02-18T03:24:29;2.58;;;2.13;;
50363;SDS011;36272;59.400;17.982;2023-02-18T03:29:35;1.83;;;1.73;;
50363;SDS011;36272;59.400;17.982;2023-02-18T03:34:39;2.10;;;1.90;;
50363;SDS011;36272;59.400;17.982;2023-02-18T03:39:45;1.83;;;1.70;;
50363;SDS011;36272;59.400;17.982;2023-02-18T03:44:51;2.17;;;1.60;;
50363;SDS011;36272;59.400;17.982;2023-02-18T03:49:53;1.30;;;1.20;;
50363;SDS011;36272;59.400;17.982;2023-02-18T03:54:55;2.15;;;1.40;;
50363;SDS011;36272;59.400;17.982;2023-02-18T03:59:56;1.60;;;1.50;;
50363;SDS011;36272;59.400;17.982;2023-02-18T04:04:58;1.00;;;0.90;;
50363;SDS011;36272;59.400;17.982;2023-02-18T04:09:59;0.90;;;0.90;;
50363;SDS011;36272;59.400;17.982;2023-02-18T04:15:01;0.90;;;0.80;;
50363;SDS011;36272;59.400;17.982;2023-02-18T04:20:04;0.65;;;0.65;;
50363;SDS011;36272;59.400;17.982;2023-02-18T04:25:06;0.47;;;0.40;;
50363;SDS011;36272;59.400;17.982;2023-02-18T04:30:08;0.75;;;0.60;;
50363;SDS011;36272;59.400;17.982;2023-02-18T04:35:10;0.43;;;0.40;;
50363;SDS011;36272;59.400;17.982;2023-02-18T04:40:12;0.40;;;0.40;;
50363;SDS011;36272;59.400;17.982;2023-02-18T04:45:14;2.65;;;0.57;;
50363;SDS011;36272;59.400;17.982;2023-02-18T04:50:16;0.50;;;0.50;;
50363;SDS011;36272;59.400;17.982;2023-02-18T04:55:17;0.40;;;0.40;;
50363;SDS011;36272;59.400;17.982;2023-02-18T05:00:19;0.52;;;0.50;;
50363;SDS011;36272;59.400;17.982;2023-02-18T05:05:21;0.57;;;0.45;;
50363;SDS011;36272;59.400;17.982;2023-02-18T05:10:22;0.52;;;0.40;;
50363;SDS011;36272;59.400;17.982;2023-02-18T05:15:24;0.85;;;0.52;;
50363;SDS011;36272;59.400;17.982;2023-02-18T05:20:26;0.82;;;0.60;;
50363;SDS011;36272;59.400;17.982;2023-02-18T05:25:28;0.30;;;0.30;;
50363;SDS011;36272;59.400;17.982;2023-02-18T05:30:30;0.60;;;0.40;;
50363;SDS011;36272;59.400;17.982;2023-02-18T05:35:32;0.30;;;0.30;;
50363;SDS011;36272;59.400;17.982;2023-02-18T05:40:34;0.40;;;0.40;;
50363;SDS011;36272;59.400;17.982;2023-02-18T05:45:35;0.30;;;0.30;;
50363;SDS011;36272;59.400;17.982;2023-02-18T05:50:37;0.57;;;0.30;;
50363;SDS011;36272;59.400;17.982;2023-02-18T05:55:39;0.30;;;0.30;;
50363;SDS011;36272;59.400;17.982;2023-02-18T06:00:41;1.20;;;0.30;;
50363;SDS011;36272;59.400;17.982;2023-02-18T06:05:42;0.10;;;0.10;;
50363;SDS011;36272;59.400;17.982;2023-02-18T06:10:44;0.10;;;0.10;;
50363;SDS011;36272;59.400;17.982;2023-02-18T06:15:48;0.22;;;0.17;;
50363;SDS011;36272;59.400;17.982;2023-02-18T06:20:52;0.13;;;0.13;;
50363;SDS011;36272;59.400;17.982;2023-02-18T06:25:53;0.10;;;0.10;;
50363;SDS011;36272;59.400;17.982;2023-02-18T06:30:55;0.10;;;0.10;;
50363;SDS011;36272;59.400;17.982;2023-02-18T06:36:01;0.20;;;0.10;;
50363;SDS011;36272;59.400;17.982;2023-02-18T06:41:07;0.10;;;0.10;;
50363;SDS011;36272;59.400;17.982;2023-02-18T06:46:09;0.13;;;0.13;;
50363;SDS011;36272;59.400;17.982;2023-02-18T06:51:11;0.55;;;0.20;;
50363;SDS011;36272;59.400;17.982;2023-02-18T06:56:13;0.20;;;0.20;;
50363;SDS011;36272;59.400;17.982;2023-02-18T07:01:15;0.30;;;0.20;;
50363;SDS011;36272;59.400;17.982;2023-02-18T07:06:16;0.10;;;0.10;;
50363;SDS011;36272;59.400;17.982;2023-02-18T07:11:18;0.35;;;0.20;;
50363;SDS011;36272;59.400;17.982;2023-02-18T07:16:19;0.50;;;0.20;;
50363;SDS011;36272;59.400;17.982;2023-02-18T07:21:21;1.20;;;0.50;;
50363;SDS011;36272;59.400;17.982;2023-02-18T07:26:23;0.20;;;0.20;;
50363;SDS011;36272;59.400;17.982;2023-02-18T07:31:24;0.47;;;0.30;;
50363;SDS011;36272;59.400;17.982;2023-02-18T07:36:26;0.55;;;0.40;;
50363;SDS011;36272;59.400;17.982;2023-02-18T07:41:28;0.30;;;0.17;;
50363;SDS011;36272;59.400;17.982;2023-02-18T07:46:34;0.40;;;0.30;;
50363;SDS011;36272;59.400;17.982;2023-02-18T07:51:40;0.35;;;0.30;;
50363;SDS011;36272;59.400;17.982;2023-02-18T07:56:42;0.35;;;0.30;;
50363;SDS011;36272;59.400;17.982;2023-02-18T08:01:44;0.55;;;0.45;;
50363;SDS011;36272;59.400;17.982;2023-02-18T08:06:47;0.40;;;0.30;;
50363;SDS011;36272;59.400;17.982;2023-02-18T08:11:49;0.40;;;0.30;;
50363;SDS011;36272;59.400;17.982;2023-02-18T08:16:51;0.68;;;0.40;;
50363;SDS011;36272;59.400;17.982;2023-02-18T08:21:53;0.80;;;0.70;;
50363;SDS011;36272;59.400;17.982;2023-02-18T08:26:55;1.25;;;0.60;;
50363;SDS011;36272;59.400;17.982;2023-02-18T08:31:56;0.43;;;0.40;;
50363;SDS011;36272;59.400;17.982;2023-02-18T08:37:00;1.33;;;0.77;;
50363;SDS011;36272;59.400;17.982;2023-02-18T08:42:03;0.60;;;0.60;;
50363;SDS011;36272;59.400;17.982;2023-02-18T08:47:05;1.15;;;0.50;;
50363;SDS011;36272;59.400;17.982;2023-02-18T08:52:12;0.60;;;0.60;;
50363;SDS011;36272;59.400;17.982;2023-02-18T08:57:14;0.60;;;0.50;;
50363;SDS011;36272;59.400;17.982;2023-02-18T09:02:16;0.40;;;0.40;;
50363;SDS011;36272;59.400;17.982;2023-02-18T09:07:17;0.70;;;0.60;;
50363;SDS011;36272;59.400;17.982;2023-02-18T09:12:19;0.63;;;0.50;;
50363;SDS011;36272;59.400;17.982;2023-02-18T09:17:21;1.00;;;0.68;;
50363;SDS011;36272;59.400;17.982;2023-02-18T09:22:22;0.55;;;0.50;;
50363;SDS011;36272;59.400;17.982;2023-02-18T09:27:24;1.25;;;0.80;;
50363;SDS011;36272;59.400;17.982;2023-02-18T09:32:27;4.10;;;0.60;;
50363;SDS011;36272;59.400;17.982;2023-02-18T09:37:29;1.77;;;0.55;;
50363;SDS011;36272;59.400;17.982;2023-02-18T09:42:31;0.73;;;0.38;;
50363;SDS011;36272;59.400;17.982;2023-02-18T09:47:36;2.83;;;0.50;;
50363;SDS011;36272;59.400;17.982;2023-02-18T09:52:40;2.30;;;0.60;;
50363;SDS011;36272;59.400;17.982;2023-02-18T09:57:46;0.40;;;0.30;;
50363;SDS011;36272;59.400;17.982;2023-02-18T10:03:03;1.75;;;0.57;;
50363;SDS011;36272;59.400;17.982;2023-02-18T10:08:20;2.47;;;0.50;;
50363;SDS011;36272;59.400;17.982;2023-02-18T10:13:31;4.30;;;0.68;;
50363;SDS011;36272;59.400;17.982;2023-02-18T10:18:49;1.77;;;0.40;;
50363;SDS011;36272;59.400;17.982;2023-02-18T10:29:16;2.80;;;0.47;;
50363;SDS011;36272;59.400;17.982;2023-02-18T10:39:36;4.78;;;0.90;;
50363;SDS011;36272;59.400;17.982;2023-02-18T10:45:11;5.23;;;0.60;;
50363;SDS011;36272;59.400;17.982;2023-02-18T10:50:39;4.85;;;0.80;;
50363;SDS011;36272;59.400;17.982;2023-02-18T10:55:44;3.92;;;0.60;;
50363;SDS011;36272;59.400;17.982;2023-02-18T11:00:47;1.60;;;0.60;;
50363;SDS011;36272;59.400;17.982;2023-02-18T11:05:49;5.80;;;0.88;;
50363;SDS011;36272;59.400;17.982;2023-02-18T11:10:54;4.53;;;0.98;;
50363;SDS011;36272;59.400;17.982;2023-02-18T11:21:02;3.80;;;1.25;;
50363;SDS011;36272;59.400;17.982;2023-02-18T11:26:09;2.75;;;0.70;;
50363;SDS011;36272;59.400;17.982;2023-02-18T11:31:21;3.38;;;0.80;;
50363;SDS011;36272;59.400;17.982;2023-02-18T11:36:27;3.42;;;0.75;;
50363;SDS011;36272;59.400;17.982;2023-02-18T11:41:38;5.78;;;1.02;;
50363;SDS011;36272;59.400;17.982;2023-02-18T11:46:56;3.55;;;0.98;;
50363;SDS011;36272;59.400;17.982;2023-02-18T11:52:28;3.30;;;0.63;;
50363;SDS011;36272;59.400;17.982;2023-02-18T11:57:36;3.17;;;0.80;;
50363;SDS011;36272;59.400;17.982;2023-02-18T12:02:43;6.13;;;0.65;;
50363;SDS011;36272;59.400;17.982;2023-02-18T12:07:49;2.22;;;0.50;;
50363;SDS011;36272;59.400;17.982;2023-02-18T12:13:00;4.38;;;1.00;;
50363;SDS011;36272;59.400;17.982;2023-02-18T12:18:32;4.43;;;1.00;;
50363;SDS011;36272;59.400;17.982;2023-02-18T12:29:28;1.25;;;0.40;;
50363;SDS011;36272;59.400;17.982;2023-02-18T12:34:53;5.75;;;0.70;;
50363;SDS011;36272;59.400;17.982;2023-02-18T13:02:07;4.88;;;0.73;;
50363;SDS011;36272;59.400;17.982;2023-02-18T13:18:30;3.20;;;0.70;;
50363;SDS011;36272;59.400;17.982;2023-02-18T13:23:38;2.50;;;0.65;;
50363;SDS011;36272;59.400;17.982;2023-02-18T13:28:50;3.20;;;0.47;;
50363;SDS011;36272;59.400;17.982;2023-02-18T13:34:47;3.25;;;0.35;;
50363;SDS011;36272;59.400;17.982;2023-02-18T13:39:56;5.82;;;0.73;;
50363;SDS011;36272;59.400;17.982;2023-02-18T13:55:23;3.60;;;0.93;;
50363;SDS011;36272;59.400;17.982;2023-02-18T14:00:39;3.95;;;0.57;;
50363;SDS011;36272;59.400;17.982;2023-02-18T14:05:48;0.98;;;0.35;;
50363;SDS011;36272;59.400;17.982;2023-02-18T14:16:13;0.90;;;0.30;;
50363;SDS011;36272;59.400;17.982;2023-02-18T14:26:22;2.83;;;0.47;;
50363;SDS011;36272;59.400;17.982;2023-02-18T14:31:28;4.45;;;0.80;;
50363;SDS011;36272;59.400;17.982;2023-02-18T14:58:12;1.65;;;0.75;;
50363;SDS011;36272;59.400;17.982;2023-02-18T15:03:25;4.93;;;0.90;;
50363;SDS011;36272;59.400;17.982;2023-02-18T15:08:35;2.50;;;0.75;;
50363;SDS011;36272;59.400;17.982;2023-02-18T15:13:42;5.30;;;1.20;;
50363;SDS011;36272;59.400;17.982;2023-02-18T15:18:50;3.42;;;0.90;;
50363;SDS011;36272;59.400;17.982;2023-02-18T15:24:01;2.63;;;0.77;;
50363;SDS011;36272;59.400;17.982;2023-02-18T15:29:23;7.35;;;1.02;;
50363;SDS011;36272;59.400;17.982;2023-02-18T15:39:38;7.55;;;0.85;;
50363;SDS011;36272;59.400;17.982;2023-02-18T15:44:45;2.55;;;0.82;;
50363;SDS011;36272;59.400;17.982;2023-02-18T15:49:51;2.90;;;1.05;;
50363;SDS011;36272;59.400;17.982;2023-02-18T15:55:41;3.33;;;1.23;;
50363;SDS011;36272;59.400;17.982;2023-02-18T16:01:06;2.28;;;1.08;;
50363;SDS011;36272;59.400;17.982;2023-02-18T16:06:25;3.67;;;1.10;;
50363;SDS011;36272;59.400;17.982;2023-02-18T16:11:33;5.60;;;0.80;;
50363;SDS011;36272;59.400;17.982;2023-02-18T16:16:41;3.78;;;1.00;;
50363;SDS011;36272;59.400;17.982;2023-02-18T16:21:43;4.70;;;1.00;;
50363;SDS011;36272;59.400;17.982;2023-02-18T16:26:45;11.52;;;1.30;;
50363;SDS011;36272;59.400;17.982;2023-02-18T16:37:32;7.93;;;1.00;;
50363;SDS011;36272;59.400;17.982;2023-02-18T16:43:15;11.18;;;1.30;;
50363;SDS011;36272;59.400;17.982;2023-02-18T16:48:31;7.00;;;1.40;;
50363;SDS011;36272;59.400;17.982;2023-02-18T16:53:35;9.50;;;1.30;;
50363;SDS011;36272;59.400;17.982;2023-02-18T16:58:38;5.50;;;1.40;;
50363;SDS011;36272;59.400;17.982;2023-02-18T17:03:39;3.70;;;1.35;;
50363;SDS011;36272;59.400;17.982;2023-02-18T17:08:41;6.97;;;1.20;;
50363;SDS011;36272;59.400;17.982;2023-02-18T17:13:43;7.28;;;1.60;;
50363;SDS011;36272;59.400;17.982;2023-02-18T17:18:44;6.88;;;1.63;;
50363;SDS011;36272;59.400;17.982;2023-02-18T17:29:15;3.85;;;1.50;;
50363;SDS011;36272;59.400;17.982;2023-02-18T17:34:19;14.57;;;1.73;;
50363;SDS011;36272;59.400;17.982;2023-02-18T17:39:45;11.45;;;2.20;;
50363;SDS011;36272;59.400;17.982;2023-02-18T17:44:56;10.07;;;1.67;;
50363;SDS011;36272;59.400;17.982;2023-02-18T17:50:01;5.03;;;1.38;;
50363;SDS011;36272;59.400;17.982;2023-02-18T17:55:24;12.00;;;1.90;;
50363;SDS011;36272;59.400;17.982;2023-02-18T18:00:34;10.50;;;1.83;;
50363;SDS011;36272;59.400;17.982;2023-02-18T18:05:48;9.38;;;1.77;;
50363;SDS011;36272;59.400;17.982;2023-02-18T18:10:55;9.15;;;1.80;;
50363;SDS011;36272;59.400;17.982;2023-02-18T18:15:59;8.32;;;1.30;;
50363;SDS011;36272;59.400;17.982;2023-02-18T18:21:01;5.25;;;1.55;;
50363;SDS011;36272;59.400;17.982;2023-02-18T18:26:04;11.73;;;1.58;;
50363;SDS011;36272;59.400;17.982;2023-02-18T18:31:08;8.63;;;2.40;;
50363;SDS011;36272;59.400;17.982;2023-02-18T18:36:14;12.27;;;1.80;;
50363;SDS011;36272;59.400;17.982;2023-02-18T18:41:19;5.88;;;2.00;;
50363;SDS011;36272;59.400;17.982;2023-02-18T18:46:21;6.60;;;1.70;;
50363;SDS011;36272;59.400;17.982;2023-02-18T18:51:27;13.50;;;2.08;;
50363;SDS011;36272;59.400;17.982;2023-02-18T18:56:30;8.00;;;1.50;;
50363;SDS011;36272;59.400;17.982;2023-02-18T19:01:37;5.88;;;1.33;;
50363;SDS011;36272;59.400;17.982;2023-02-18T19:06:39;7.72;;;2.10;;
50363;SDS011;36272;59.400;17.982;2023-02-18T19:11:40;14.25;;;2.20;;
50363;SDS011;36272;59.400;17.982;2023-02-18T19:16:45;7.32;;;1.73;;
50363;SDS011;36272;59.400;17.982;2023-02-18T19:21:46;6.93;;;1.73;;
50363;SDS011;36272;59.400;17.982;2023-02-18T19:26:49;11.13;;;1.73;;
50363;SDS011;36272;59.400;17.982;2023-02-18T19:31:50;9.77;;;1.50;;
50363;SDS011;36272;59.400;17.982;2023-02-18T19:36:52;11.20;;;1.60;;
50363;SDS011;36272;59.400;17.982;2023-02-18T19:41:54;10.93;;;1.73;;
50363;SDS011;36272;59.400;17.982;2023-02-18T19:46:55;6.03;;;1.73;;
50363;SDS011;36272;59.400;17.982;2023-02-18T19:51:59;10.57;;;1.50;;
50363;SDS011;36272;59.400;17.982;2023-02-18T19:57:04;6.60;;;1.27;;
50363;SDS011;36272;59.400;17.982;2023-02-18T20:02:09;6.05;;;1.45;;
50363;SDS011;36272;59.400;17.982;2023-02-18T20:07:15;8.50;;;1.90;;
50363;SDS011;36272;59.400;17.982;2023-02-18T20:12:18;4.88;;;1.63;;
50363;SDS011;36272;59.400;17.982;2023-02-18T20:17:20;11.63;;;1.88;;
50363;SDS011;36272;59.400;17.982;2023-02-18T20:22:21;6.25;;;1.27;;
50363;SDS011;36272;59.400;17.982;2023-02-18T20:27:23;8.63;;;1.33;;
50363;SDS011;36272;59.400;17.982;2023-02-18T20:32:25;7.85;;;1.27;;
50363;SDS011;36272;59.400;17.982;2023-02-18T20:37:26;6.05;;;2.00;;
50363;SDS011;36272;59.400;17.982;2023-02-18T20:42:28;7.10;;;1.83;;
50363;SDS011;36272;59.400;17.982;2023-02-18T20:47:30;7.57;;;1.20;;
50363;SDS011;36272;59.400;17.982;2023-02-18T20:52:32;8.63;;;1.23;;
50363;SDS011;36272;59.400;17.982;2023-02-18T20:57:34;4.65;;;1.10;;
50363;SDS011;36272;59.400;17.982;2023-02-18T21:02:38;5.60;;;0.88;;
50363;SDS011;36272;59.400;17.982;2023-02-18T21:07:40;3.65;;;0.88;;
50363;SDS011;36272;59.400;17.982;2023-02-18T21:12:41;11.98;;;1.77;;
50363;SDS011;36272;59.400;17.982;2023-02-18T21:17:43;3.90;;;0.75;;
50363;SDS011;36272;59.400;17.982;2023-02-18T21:22:45;4.45;;;1.10;;
50363;SDS011;36272;59.400;17.982;2023-02-18T21:27:46;3.55;;;0.93;;
50363;SDS011;36272;59.400;17.982;2023-02-18T21:32:48;4.32;;;0.85;;
50363;SDS011;36272;59.400;17.982;2023-02-18T21:37:50;5.78;;;1.30;;
50363;SDS011;36272;59.400;17.982;2023-02-18T21:42:52;4.65;;;0.90;;
50363;SDS011;36272;59.400;17.982;2023-02-18T21:47:54;7.50;;;1.25;;
50363;SDS011;36272;59.400;17.982;2023-02-18T21:52:55;6.63;;;0.90;;
50363;SDS011;36272;59.400;17.982;2023-02-18T21:57:57;10.50;;;1.00;;
50363;SDS011;36272;59.400;17.982;2023-02-18T22:02:59;5.07;;;0.80;;
50363;SDS011;36272;59.400;17.982;2023-02-18T22:08:01;8.52;;;1.00;;
50363;SDS011;36272;59.400;17.982;2023-02-18T22:13:03;6.43;;;1.15;;
50363;SDS011;36272;59.400;17.982;2023-02-18T22:18:04;7.95;;;1.70;;
50363;SDS011;36272;59.400;17.982;2023-02-18T22:23:06;1.80;;;0.70;;
50363;SDS011;36272;59.400;17.982;2023-02-18T22:28:08;3.08;;;0.63;;
50363;SDS011;36272;59.400;17.982;2023-02-18T22:33:12;3.95;;;0.80;;
50363;SDS011;36272;59.400;17.982;2023-02-18T22:38:13;3.67;;;0.80;;
50363;SDS011;36272;59.400;17.982;2023-02-18T22:43:15;6.22;;;1.10;;
50363;SDS011;36272;59.400;17.982;2023-02-18T22:48:17;5.43;;;0.75;;
50363;SDS011;36272;59.400;17.982;2023-02-18T22:53:18;8.77;;;1.10;;
50363;SDS011;36272;59.400;17.982;2023-02-18T22:58:20;4.70;;;0.82;;
50363;SDS011;36272;59.400;17.982;2023-02-18T23:03:22;2.25;;;0.60;;
50363;SDS011;36272;59.400;17.982;2023-02-18T23:08:24;3.95;;;1.00;;
50363;SDS011;36272;59.400;17.982;2023-02-18T23:13:25;5.95;;;1.90;;
50363;SDS011;36272;59.400;17.982;2023-02-18T23:18:27;5.35;;;2.15;;
50363;SDS011;36272;59.400;17.982;2023-02-18T23:23:30;6.03;;;1.55;;
50363;SDS011;36272;59.400;17.982;2023-02-18T23:28:31;4.03;;;0.77;;
50363;SDS011;36272;59.400;17.982;2023-02-18T23:33:48;7.03;;;1.15;;
50363;SDS011;36272;59.400;17.982;2023-02-18T23:38:54;2.28;;;0.57;;
50363;SDS011;36272;59.400;17.982;2023-02-18T23:43:57;3.78;;;0.50;;
50363;SDS011;36272;59.400;17.982;2023-02-18T23:48:59;2.65;;;0.80;;
50363;SDS011;36272;59.400;17.982;2023-02-18T23:54:01;3.33;;;1.00;;
50363;SDS011;36272;59.400;17.982;2023-02-18T23:59:04;4.35;;;0.95;;
